Time;durP1;ratioP1;P1;durP2;ratioP2;P2;SDS_P1;SDS_P2;PMS_P1;PMS_P2;Temp;Humidity;BMP_temperature;BMP_pressure;BME280_temperature;BME280_humidity;BME280_pressure;Samples;Min_cycle;Max_cycle;Signal;HPM_P1;HPM_P2
2023/03/12 00:02:00;;;;;;;19.77;5.35;;;;;;;;;;4982941;28;20412;-68
2023/03/12 00:04:26;;;;;;;18.10;5.82;;;;;;;;;;4985520;28;20019;-68
2023/03/12 00:06:51;;;;;;;21.35;5.70;;;;;;;;;;4991845;28;20065;-68
2023/03/12 00:09:17;;;;;;;27.90;8.75;;;;;;;;;;4992518;28;20464;-68
2023/03/12 00:11:42;;;;;;;16.67;5.75;;;;;;;;;;4988239;28;20031;-68
2023/03/12 00:14:08;;;;;;;9.75;3.95;;;;;;;;;;4972864;28;20030;-68
2023/03/12 00:16:33;;;;;;;18.67;5.50;;;;;;;;;;4973026;28;20031;-68
2023/03/12 00:18:59;;;;;;;10.57;3.17;;;;;;;;;;4972908;28;20070;-68
2023/03/12 00:21:24;;;;;;;15.15;4.47;;;;;;;;;;4972833;28;20026;-68
2023/03/12 00:23:51;;;;;;;10.30;3.70;;;;;;;;;;4972903;28;20057;-68
2023/03/12 00:26:19;;;;;;;11.77;4.53;;;;;;;;;;4972875;28;20034;-68
2023/03/12 00:28:45;;;;;;;8.70;4.45;;;;;;;;;;4972423;28;20114;-68
2023/03/12 00:31:20;;;;;;;6.28;2.45;;;;;;;;;;4975111;28;20034;-68
2023/03/12 00:33:48;;;;;;;8.73;3.53;;;;;;;;;;4992290;28;20514;-68
2023/03/12 00:36:15;;;;;;;7.07;3.47;;;;;;;;;;4992922;28;20023;-68
2023/03/12 00:38:41;;;;;;;3.55;2.28;;;;;;;;;;4993222;28;20424;-68
2023/03/12 00:41:07;;;;;;;5.82;3.13;;;;;;;;;;4993215;28;20023;-68
2023/03/12 00:43:32;;;;;;;6.57;2.47;;;;;;;;;;4992913;28;20476;-68
2023/03/12 00:45:58;;;;;;;4.95;2.40;;;;;;;;;;4993130;28;20403;-68
2023/03/12 00:48:24;;;;;;;5.15;2.95;;;;;;;;;;4993115;28;20031;-68
2023/03/12 00:50:49;;;;;;;3.83;2.53;;;;;;;;;;4993023;28;20031;-68
2023/03/12 00:53:15;;;;;;;7.88;3.17;;;;;;;;;;4993172;28;20113;-68
2023/03/12 00:55:40;;;;;;;4.38;3.08;;;;;;;;;;4993072;28;20046;-68
2023/03/12 00:58:06;;;;;;;3.00;2.30;;;;;;;;;;4992853;28;20062;-68
2023/03/12 01:00:31;;;;;;;5.43;2.35;;;;;;;;;;4993202;28;20030;-68
2023/03/12 01:02:57;;;;;;;7.35;2.90;;;;;;;;;;4993109;28;20034;-68
2023/03/12 01:05:22;;;;;;;4.68;2.85;;;;;;;;;;4993054;28;20429;-68
2023/03/12 01:07:47;;;;;;;6.63;2.92;;;;;;;;;;4992837;28;20066;-68
2023/03/12 01:10:14;;;;;;;4.93;3.25;;;;;;;;;;4993037;28;20030;-68
2023/03/12 01:12:41;;;;;;;5.65;2.67;;;;;;;;;;4992842;28;20026;-68
2023/03/12 01:15:07;;;;;;;5.25;2.05;;;;;;;;;;4993029;28;20022;-68
2023/03/12 01:17:32;;;;;;;5.63;2.60;;;;;;;;;;4993046;28;20031;-68
2023/03/12 01:19:58;;;;;;;2.30;1.25;;;;;;;;;;4996768;28;20109;-68
2023/03/12 01:22:23;;;;;;;3.53;1.67;;;;;;;;;;4996395;28;20147;-68
2023/03/12 01:24:49;;;;;;;8.07;2.92;;;;;;;;;;4996381;28;20026;-68
2023/03/12 01:27:14;;;;;;;8.73;3.55;;;;;;;;;;4996437;28;20495;-68
2023/03/12 01:29:40;;;;;;;5.32;3.30;;;;;;;;;;4996083;28;20069;-68
2023/03/12 01:32:06;;;;;;;3.60;1.77;;;;;;;;;;5005721;28;20030;-68
2023/03/12 01:34:32;;;;;;;2.85;1.33;;;;;;;;;;5016172;28;20042;-68
2023/03/12 01:36:58;;;;;;;1.38;0.95;;;;;;;;;;5015835;28;20030;-68
2023/03/12 01:39:24;;;;;;;5.45;1.20;;;;;;;;;;5015620;28;20036;-68
2023/03/12 01:41:50;;;;;;;4.72;1.23;;;;;;;;;;5015683;28;20414;-68
2023/03/12 01:44:15;;;;;;;2.00;0.93;;;;;;;;;;5015701;28;20022;-68
2023/03/12 01:46:44;;;;;;;1.45;0.73;;;;;;;;;;5015823;28;20029;-68
2023/03/12 01:49:20;;;;;;;4.10;0.93;;;;;;;;;;5015593;28;20057;-68
2023/03/12 01:52:14;;;;;;;1.80;1.00;;;;;;;;;;5015737;28;20073;-68
2023/03/12 01:55:01;;;;;;;2.45;0.98;;;;;;;;;;5012413;28;20511;-68
2023/03/12 01:57:51;;;;;;;2.13;1.10;;;;;;;;;;5015527;28;20030;-68
2023/03/12 02:00:23;;;;;;;3.55;0.70;;;;;;;;;;5015595;28;20054;-67
2023/03/12 02:02:51;;;;;;;3.60;1.17;;;;;;;;;;5015462;28;20116;-68
2023/03/12 02:05:26;;;;;;;4.97;0.82;;;;;;;;;;5015474;28;20061;-67
2023/03/12 02:07:51;;;;;;;3.38;0.98;;;;;;;;;;5015454;28;20025;-67
2023/03/12 02:10:17;;;;;;;2.08;0.80;;;;;;;;;;5015066;28;20085;-67
2023/03/12 02:12:42;;;;;;;1.55;0.90;;;;;;;;;;5015318;28;20065;-68
2023/03/12 02:15:08;;;;;;;3.90;1.23;;;;;;;;;;5015493;28;20030;-67
2023/03/12 02:17:35;;;;;;;2.65;1.23;;;;;;;;;;5015093;28;20034;-69
2023/03/12 02:20:43;;;;;;;5.40;2.17;;;;;;;;;;5015132;28;20022;-68
2023/03/12 02:23:17;;;;;;;3.00;1.38;;;;;;;;;;4993046;28;20438;-67
2023/03/12 02:25:48;;;;;;;2.75;1.30;;;;;;;;;;4993193;28;20170;-67
2023/03/12 02:28:17;;;;;;;3.85;1.35;;;;;;;;;;4993373;28;20038;-67
2023/03/12 02:30:46;;;;;;;4.85;1.40;;;;;;;;;;4992362;28;20161;-67
2023/03/12 02:33:11;;;;;;;2.22;1.13;;;;;;;;;;4993154;28;20073;-67
2023/03/12 02:35:37;;;;;;;3.22;1.27;;;;;;;;;;4993125;28;20447;-67
2023/03/12 02:38:34;;;;;;;5.55;1.85;;;;;;;;;;4992922;28;20054;-68
2023/03/12 02:41:10;;;;;;;3.20;1.55;;;;;;;;;;4992953;28;20037;-67
2023/03/12 02:43:36;;;;;;;2.08;1.50;;;;;;;;;;4992782;28;20103;-68
2023/03/12 02:46:01;;;;;;;1.98;1.17;;;;;;;;;;4992594;28;20507;-68
2023/03/12 02:48:27;;;;;;;6.55;2.50;;;;;;;;;;4992816;28;20041;-68
2023/03/12 02:50:52;;;;;;;2.88;1.70;;;;;;;;;;4992762;28;20064;-68
2023/03/12 02:53:17;;;;;;;2.88;1.70;;;;;;;;;;4992578;28;20077;-68
2023/03/12 02:55:43;;;;;;;5.25;1.55;;;;;;;;;;4976460;28;20057;-67
2023/03/12 02:58:08;;;;;;;7.32;1.50;;;;;;;;;;4992607;28;20049;-67
2023/03/12 03:00:36;;;;;;;2.58;1.45;;;;;;;;;;5007470;28;20034;-67
2023/03/12 03:03:02;;;;;;;5.13;1.95;;;;;;;;;;5014220;28;20490;-67
2023/03/12 03:05:27;;;;;;;4.35;1.67;;;;;;;;;;5014314;28;20030;-69
2023/03/12 03:07:53;;;;;;;5.15;1.42;;;;;;;;;;5013532;28;20061;-67
2023/03/12 03:10:18;;;;;;;2.42;1.65;;;;;;;;;;5014119;28;20201;-67
2023/03/12 03:12:44;;;;;;;4.28;1.73;;;;;;;;;;5014106;28;20022;-67
2023/03/12 03:15:10;;;;;;;5.90;1.90;;;;;;;;;;5014065;28;20107;-67
2023/03/12 03:17:36;;;;;;;4.03;1.70;;;;;;;;;;5014066;28;20030;-67
2023/03/12 03:20:09;;;;;;;3.03;2.03;;;;;;;;;;5014063;28;20454;-67
2023/03/12 03:22:35;;;;;;;2.40;1.75;;;;;;;;;;5013836;28;20111;-67
2023/03/12 03:25:00;;;;;;;4.55;2.35;;;;;;;;;;5013891;28;20451;-67
2023/03/12 03:27:26;;;;;;;5.75;2.25;;;;;;;;;;5013928;28;20414;-69
2023/03/12 03:29:51;;;;;;;3.05;2.00;;;;;;;;;;5013532;28;20045;-69
2023/03/12 03:32:16;;;;;;;5.40;2.00;;;;;;;;;;5013740;28;20407;-69
2023/03/12 03:34:42;;;;;;;2.95;2.20;;;;;;;;;;5013782;28;20378;-69
2023/03/12 03:37:07;;;;;;;5.38;2.38;;;;;;;;;;5013449;28;20030;-67
2023/03/12 03:39:33;;;;;;;6.68;2.30;;;;;;;;;;5013562;28;20029;-67
2023/03/12 03:41:59;;;;;;;5.07;2.40;;;;;;;;;;5013497;28;20036;-69
2023/03/12 03:44:24;;;;;;;5.75;2.08;;;;;;;;;;5013636;28;20479;-69
2023/03/12 03:46:50;;;;;;;5.35;2.40;;;;;;;;;;5013587;28;20038;-67
2023/03/12 03:49:15;;;;;;;5.00;1.85;;;;;;;;;;5013471;28;20026;-68
2023/03/12 03:51:41;;;;;;;3.28;2.00;;;;;;;;;;5013368;28;20426;-68
2023/03/12 03:54:08;;;;;;;5.43;1.92;;;;;;;;;;5013523;28;20029;-68
2023/03/12 03:56:34;;;;;;;7.80;2.47;;;;;;;;;;5013423;28;20044;-68
2023/03/12 03:59:00;;;;;;;3.90;2.13;;;;;;;;;;5013346;28;20515;-68
2023/03/12 04:01:27;;;;;;;4.60;2.30;;;;;;;;;;5013289;28;20061;-68
2023/03/12 04:03:52;;;;;;;5.20;2.40;;;;;;;;;;5013336;28;20029;-68
2023/03/12 04:06:17;;;;;;;4.80;2.08;;;;;;;;;;5012852;28;20033;-67
2023/03/12 04:08:43;;;;;;;4.90;2.35;;;;;;;;;;5013079;28;20026;-68
2023/03/12 04:11:15;;;;;;;3.35;1.70;;;;;;;;;;5013252;28;20026;-67
2023/03/12 04:13:41;;;;;;;4.95;2.38;;;;;;;;;;5013131;28;20076;-67
2023/03/12 04:16:07;;;;;;;5.82;2.20;;;;;;;;;;5013088;28;20025;-67
2023/03/12 04:18:34;;;;;;;4.63;2.35;;;;;;;;;;5012806;28;20026;-67
2023/03/12 04:21:00;;;;;;;5.30;2.30;;;;;;;;;;5012900;28;20072;-67
2023/03/12 04:23:26;;;;;;;10.25;2.17;;;;;;;;;;5012976;28;20041;-67
2023/03/12 04:25:51;;;;;;;4.38;2.38;;;;;;;;;;5012948;28;20049;-67
2023/03/12 04:28:17;;;;;;;7.68;2.30;;;;;;;;;;5013109;28;20022;-68
2023/03/12 04:30:42;;;;;;;3.38;1.60;;;;;;;;;;5011639;28;20042;-67
2023/03/12 04:33:08;;;;;;;3.30;2.05;;;;;;;;;;5011659;28;20040;-68
2023/03/12 04:35:33;;;;;;;5.70;2.47;;;;;;;;;;5012569;28;20034;-68
2023/03/12 04:38:02;;;;;;;8.32;2.30;;;;;;;;;;5013002;28;20105;-68
2023/03/12 04:40:28;;;;;;;7.13;2.38;;;;;;;;;;5012845;28;20029;-67
2023/03/12 04:42:53;;;;;;;2.28;1.52;;;;;;;;;;5012790;28;20109;-67
2023/03/12 04:45:19;;;;;;;7.22;2.80;;;;;;;;;;5012894;28;20026;-67
2023/03/12 04:47:44;;;;;;;4.82;2.50;;;;;;;;;;5011456;28;20041;-69
2023/03/12 04:50:11;;;;;;;3.33;1.75;;;;;;;;;;5012760;28;20025;-68
2023/03/12 04:52:37;;;;;;;2.28;1.63;;;;;;;;;;5013166;28;20065;-68
2023/03/12 04:55:04;;;;;;;2.63;1.90;;;;;;;;;;5016651;28;20079;-67
2023/03/12 04:57:29;;;;;;;8.57;2.20;;;;;;;;;;5016639;28;20045;-68
2023/03/12 04:59:55;;;;;;;5.03;2.10;;;;;;;;;;5016678;28;20017;-68
2023/03/12 05:02:20;;;;;;;1.83;1.35;;;;;;;;;;5016330;28;20033;-67
2023/03/12 05:04:46;;;;;;;6.15;2.70;;;;;;;;;;5016578;28;20026;-67
2023/03/12 05:07:11;;;;;;;6.47;2.20;;;;;;;;;;5016569;28;20423;-67
2023/03/12 05:09:36;;;;;;;2.53;2.03;;;;;;;;;;5016410;28;20030;-67
2023/03/12 05:12:02;;;;;;;3.17;2.28;;;;;;;;;;5016425;28;20053;-67
2023/03/12 05:14:28;;;;;;;5.82;2.28;;;;;;;;;;5016472;28;20053;-68
2023/03/12 05:16:53;;;;;;;4.10;2.13;;;;;;;;;;5016050;28;20030;-67
2023/03/12 05:19:19;;;;;;;7.18;2.47;;;;;;;;;;5016215;28;20029;-67
2023/03/12 05:21:44;;;;;;;4.40;2.30;;;;;;;;;;5016278;28;20032;-67
2023/03/12 05:24:10;;;;;;;5.70;2.47;;;;;;;;;;5016100;28;20029;-67
2023/03/12 05:26:36;;;;;;;5.75;2.58;;;;;;;;;;5016117;28;20436;-67
2023/03/12 05:29:02;;;;;;;3.50;2.40;;;;;;;;;;5015834;28;20049;-68
2023/03/12 05:31:31;;;;;;;10.63;3.45;;;;;;;;;;5015784;28;20036;-68
2023/03/12 05:33:58;;;;;;;4.72;2.42;;;;;;;;;;5016085;28;20497;-67
2023/03/12 05:36:24;;;;;;;4.93;2.72;;;;;;;;;;5015991;28;20510;-67
2023/03/12 05:38:50;;;;;;;6.22;2.33;;;;;;;;;;5015834;28;20038;-68
2023/03/12 05:41:21;;;;;;;6.35;2.97;;;;;;;;;;5015897;28;20463;-67
2023/03/12 05:43:47;;;;;;;3.70;2.55;;;;;;;;;;5015795;28;20034;-68
2023/03/12 05:46:13;;;;;;;6.28;2.50;;;;;;;;;;5015552;28;20032;-68
2023/03/12 05:48:38;;;;;;;5.35;2.50;;;;;;;;;;5015602;28;20022;-69
2023/03/12 05:51:04;;;;;;;7.03;2.08;;;;;;;;;;5015670;28;20431;-69
2023/03/12 05:53:29;;;;;;;3.70;2.13;;;;;;;;;;5015534;28;20376;-67
2023/03/12 05:56:01;;;;;;;7.38;2.30;;;;;;;;;;5015643;28;20030;-69
2023/03/12 05:58:27;;;;;;;4.55;2.30;;;;;;;;;;5015615;28;20122;-69
2023/03/12 06:00:52;;;;;;;6.68;2.70;;;;;;;;;;5015133;28;20061;-67
2023/03/12 06:03:18;;;;;;;6.82;2.20;;;;;;;;;;5015308;28;20040;-69
2023/03/12 06:05:44;;;;;;;9.98;2.58;;;;;;;;;;5014224;28;20387;-69
2023/03/12 06:08:10;;;;;;;5.40;2.65;;;;;;;;;;5015112;28;20375;-69
2023/03/12 06:10:37;;;;;;;5.63;2.72;;;;;;;;;;5015393;28;20125;-67
2023/03/12 06:13:02;;;;;;;5.80;2.92;;;;;;;;;;5015247;28;20026;-67
2023/03/12 06:15:28;;;;;;;5.25;2.70;;;;;;;;;;5014918;28;20026;-69
2023/03/12 06:17:53;;;;;;;6.53;2.60;;;;;;;;;;5015250;28;20463;-69
2023/03/12 06:20:19;;;;;;;3.78;1.75;;;;;;;;;;5015060;28;20026;-67
2023/03/12 06:22:44;;;;;;;3.67;2.53;;;;;;;;;;5014882;28;20026;-69
2023/03/12 06:25:09;;;;;;;4.20;2.30;;;;;;;;;;5015062;28;20382;-66
2023/03/12 06:27:35;;;;;;;2.90;1.85;;;;;;;;;;5014790;28;20026;-68
2023/03/12 06:30:00;;;;;;;4.78;2.13;;;;;;;;;;5014415;28;20530;-67
2023/03/12 06:32:26;;;;;;;4.57;2.17;;;;;;;;;;5014613;28;20121;-67
2023/03/12 06:34:51;;;;;;;4.32;2.45;;;;;;;;;;5014573;28;20018;-67
2023/03/12 06:37:17;;;;;;;4.88;2.47;;;;;;;;;;5014727;28;20029;-67
2023/03/12 06:39:42;;;;;;;5.72;3.28;;;;;;;;;;5014673;28;20034;-67
2023/03/12 06:42:08;;;;;;;4.82;2.35;;;;;;;;;;5014625;28;20018;-68
2023/03/12 06:44:33;;;;;;;5.55;2.75;;;;;;;;;;5014388;28;20471;-67
2023/03/12 06:46:58;;;;;;;5.10;2.03;;;;;;;;;;5014470;28;20026;-67
2023/03/12 06:49:24;;;;;;;5.05;2.30;;;;;;;;;;5014423;28;20079;-67
2023/03/12 06:51:50;;;;;;;4.32;1.90;;;;;;;;;;5014546;28;20033;-67
2023/03/12 06:54:15;;;;;;;5.13;2.03;;;;;;;;;;5014389;28;20181;-68
2023/03/12 06:56:41;;;;;;;3.50;1.70;;;;;;;;;;5014417;28;20029;-68
2023/03/12 06:59:06;;;;;;;3.75;2.08;;;;;;;;;;5013852;28;20030;-68
2023/03/12 07:01:32;;;;;;;4.50;2.20;;;;;;;;;;5014118;28;20112;-68
2023/03/12 07:03:57;;;;;;;5.82;1.90;;;;;;;;;;5013021;28;20391;-68
2023/03/12 07:06:24;;;;;;;5.28;2.40;;;;;;;;;;5013957;28;20160;-68
2023/03/12 07:08:50;;;;;;;4.32;2.10;;;;;;;;;;4996846;28;20042;-68
2023/03/12 07:11:16;;;;;;;4.10;1.95;;;;;;;;;;4994412;28;20103;-68
2023/03/12 07:13:42;;;;;;;5.22;2.08;;;;;;;;;;4994218;28;20100;-67
2023/03/12 07:16:08;;;;;;;6.13;2.00;;;;;;;;;;4994270;28;20030;-68
2023/03/12 07:18:33;;;;;;;5.47;2.35;;;;;;;;;;4994335;28;20030;-68
2023/03/12 07:20:59;;;;;;;5.57;2.58;;;;;;;;;;4994402;28;20023;-68
2023/03/12 07:23:24;;;;;;;5.15;2.58;;;;;;;;;;4994185;28;20387;-68
2023/03/12 07:25:50;;;;;;;4.10;2.05;;;;;;;;;;4994320;28;20478;-68
2023/03/12 07:28:17;;;;;;;6.88;2.60;;;;;;;;;;4994042;28;20030;-68
2023/03/12 07:30:48;;;;;;;5.38;2.30;;;;;;;;;;4993970;28;20096;-68
2023/03/12 07:33:16;;;;;;;4.35;2.08;;;;;;;;;;5012857;28;20028;-68
2023/03/12 07:35:41;;;;;;;4.53;2.15;;;;;;;;;;5013550;28;20018;-68
2023/03/12 07:38:08;;;;;;;5.38;1.80;;;;;;;;;;5013494;28;20024;-68
2023/03/12 07:40:35;;;;;;;4.38;2.03;;;;;;;;;;5013669;28;20080;-68
2023/03/12 07:43:02;;;;;;;5.60;2.67;;;;;;;;;;5013273;28;20076;-69
2023/03/12 07:45:28;;;;;;;5.57;1.83;;;;;;;;;;5013556;28;20030;-68
2023/03/12 07:47:53;;;;;;;5.03;1.98;;;;;;;;;;5013142;28;20397;-68
2023/03/12 07:50:19;;;;;;;4.43;2.17;;;;;;;;;;5013330;28;20375;-68
2023/03/12 07:52:45;;;;;;;5.70;2.30;;;;;;;;;;5012615;28;20033;-68
2023/03/12 07:55:11;;;;;;;6.40;2.58;;;;;;;;;;5013413;28;20077;-68
2023/03/12 07:57:37;;;;;;;4.32;2.28;;;;;;;;;;5011841;28;20030;-68
2023/03/12 08:00:06;;;;;;;3.53;2.10;;;;;;;;;;5012622;28;20029;-69
2023/03/12 08:02:32;;;;;;;5.57;2.55;;;;;;;;;;4973848;28;20027;-69
2023/03/12 08:04:57;;;;;;;5.82;2.58;;;;;;;;;;4974240;28;20078;-69
2023/03/12 08:07:23;;;;;;;5.25;2.40;;;;;;;;;;4992813;28;20030;-69
2023/03/12 08:09:48;;;;;;;6.50;2.40;;;;;;;;;;4993589;28;20424;-69
2023/03/12 08:12:14;;;;;;;4.63;2.40;;;;;;;;;;4975246;28;20484;-69
2023/03/12 08:14:39;;;;;;;4.97;2.70;;;;;;;;;;4973877;28;20022;-68
2023/03/12 08:17:05;;;;;;;5.22;2.47;;;;;;;;;;4974061;28;20027;-68
2023/03/12 08:19:30;;;;;;;3.83;2.47;;;;;;;;;;4974051;28;20353;-69
2023/03/12 08:21:56;;;;;;;4.38;2.47;;;;;;;;;;4989217;28;20488;-69
2023/03/12 08:24:23;;;;;;;5.93;2.35;;;;;;;;;;4993312;28;20452;-69
2023/03/12 08:26:48;;;;;;;6.78;2.72;;;;;;;;;;4978686;28;20035;-68
2023/03/12 08:29:15;;;;;;;5.25;2.42;;;;;;;;;;4972939;28;20134;-68
2023/03/12 08:31:40;;;;;;;5.35;2.40;;;;;;;;;;4986896;28;20027;-68
2023/03/12 08:34:06;;;;;;;5.90;2.67;;;;;;;;;;4993152;28;20049;-69
2023/03/12 08:36:31;;;;;;;5.88;2.35;;;;;;;;;;4989408;28;20464;-69
2023/03/12 08:38:57;;;;;;;4.28;2.70;;;;;;;;;;4982711;28;20077;-69
2023/03/12 08:41:22;;;;;;;5.97;2.13;;;;;;;;;;4990337;28;20041;-69
2023/03/12 08:43:47;;;;;;;4.45;2.22;;;;;;;;;;4993073;28;20030;-69
2023/03/12 08:46:13;;;;;;;5.78;2.10;;;;;;;;;;4993222;28;20049;-69
2023/03/12 08:48:39;;;;;;;4.80;2.20;;;;;;;;;;4993284;28;20375;-68
2023/03/12 08:51:06;;;;;;;5.80;2.45;;;;;;;;;;4993019;28;20052;-68
2023/03/12 08:53:34;;;;;;;5.00;2.20;;;;;;;;;;5008769;28;20030;-68
2023/03/12 08:55:59;;;;;;;7.05;2.60;;;;;;;;;;4993594;28;20038;-68
2023/03/12 08:58:25;;;;;;;4.68;2.47;;;;;;;;;;4995287;28;20034;-67
2023/03/12 09:00:52;;;;;;;5.90;2.30;;;;;;;;;;5002175;28;20030;-68
2023/03/12 09:03:18;;;;;;;5.95;2.50;;;;;;;;;;4999109;28;20081;-68
2023/03/12 09:05:44;;;;;;;7.90;3.10;;;;;;;;;;5008910;28;20332;-68
2023/03/12 09:08:10;;;;;;;7.40;2.80;;;;;;;;;;4996432;28;20383;-67
2023/03/12 09:10:36;;;;;;;7.05;3.10;;;;;;;;;;5004743;28;20033;-67
2023/03/12 09:13:02;;;;;;;6.00;2.40;;;;;;;;;;5003716;28;20108;-67
2023/03/12 09:15:27;;;;;;;6.82;2.60;;;;;;;;;;4997292;28;20556;-69
2023/03/12 09:17:54;;;;;;;6.35;3.38;;;;;;;;;;4995171;28;20062;-68
2023/03/12 09:20:20;;;;;;;4.68;2.45;;;;;;;;;;5012400;28;20030;-68
2023/03/12 09:22:46;;;;;;;3.38;2.20;;;;;;;;;;5010898;28;20034;-68
2023/03/12 09:25:12;;;;;;;3.95;2.10;;;;;;;;;;5012065;28;20022;-68
2023/03/12 09:27:43;;;;;;;5.50;2.40;;;;;;;;;;5011899;28;20029;-67
2023/03/12 09:30:15;;;;;;;4.45;1.75;;;;;;;;;;5010916;28;20417;-67
2023/03/12 09:32:43;;;;;;;6.20;2.17;;;;;;;;;;5011881;28;20042;-68
2023/03/12 09:35:08;;;;;;;6.03;2.40;;;;;;;;;;5012429;28;20121;-68
2023/03/12 09:37:34;;;;;;;5.82;2.60;;;;;;;;;;5010378;28;20053;-68
2023/03/12 09:40:06;;;;;;;4.97;2.20;;;;;;;;;;5011987;28;20026;-68
2023/03/12 09:42:54;;;;;;;4.85;2.20;;;;;;;;;;5012859;28;20034;-68
2023/03/12 09:45:29;;;;;;;3.15;2.00;;;;;;;;;;5013001;28;20372;-68
2023/03/12 09:48:01;;;;;;;5.80;2.58;;;;;;;;;;5014100;28;20029;-68
2023/03/12 09:50:34;;;;;;;6.78;2.53;;;;;;;;;;5012058;28;20041;-68
2023/03/12 09:53:14;;;;;;;6.15;2.17;;;;;;;;;;5014019;28;20125;-68
2023/03/12 09:55:44;;;;;;;5.70;2.15;;;;;;;;;;5015464;28;20026;-68
2023/03/12 09:58:17;;;;;;;7.03;2.55;;;;;;;;;;5015575;28;20585;-67
2023/03/12 10:00:43;;;;;;;9.10;2.65;;;;;;;;;;5015302;28;20061;-68
2023/03/12 10:03:42;;;;;;;7.65;2.47;;;;;;;;;;5015310;28;20432;-68
2023/03/12 10:06:18;;;;;;;5.20;2.45;;;;;;;;;;4993733;28;20137;-68
2023/03/12 10:09:30;;;;;;;6.60;2.75;;;;;;;;;;4993254;28;20049;-68
2023/03/12 10:12:24;;;;;;;5.00;2.10;;;;;;;;;;4916483;29;20135;-68
2023/03/12 10:15:13;;;;;;;7.13;2.47;;;;;;;;;;4916547;29;20514;-67
2023/03/12 10:18:02;;;;;;;5.47;2.42;;;;;;;;;;4916404;29;20036;-68
2023/03/12 10:20:47;;;;;;;5.53;2.67;;;;;;;;;;4900829;29;20028;-67
2023/03/12 10:23:26;;;;;;;6.43;2.72;;;;;;;;;;4916297;29;20054;-68
2023/03/12 10:25:59;;;;;;;5.97;2.33;;;;;;;;;;4916393;29;20043;-68
2023/03/12 10:28:33;;;;;;;6.85;2.00;;;;;;;;;;4916251;29;20040;-67
2023/03/12 10:31:02;;;;;;;5.72;2.40;;;;;;;;;;4915979;29;20048;-67
2023/03/12 10:33:42;;;;;;;4.68;2.33;;;;;;;;;;4916307;29;20043;-67
2023/03/12 10:36:11;;;;;;;;;;;;;;;;;;4916608;29;20095;-68
2023/03/12 10:38:37;;;;;;;6.80;3.17;;;;;;;;;;4916180;29;19918;-68
2023/03/12 10:41:15;;;;;;;9.57;3.65;;;;;;;;;;4924701;29;20131;-68
2023/03/12 10:43:40;;;;;;;7.80;2.42;;;;;;;;;;4954469;29;20039;-68
2023/03/12 10:46:14;;;;;;;6.57;2.00;;;;;;;;;;4954275;29;20031;-68
2023/03/12 10:48:42;;;;;;;7.07;1.90;;;;;;;;;;5013127;28;20046;-67
2023/03/12 10:51:10;;;;;;;5.30;1.83;;;;;;;;;;5013759;28;20168;-68
2023/03/12 10:53:38;;;;;;;9.88;2.58;;;;;;;;;;5013010;28;20061;-67
2023/03/12 10:56:09;;;;;;;9.40;2.10;;;;;;;;;;5014300;28;20034;-67
2023/03/12 10:58:43;;;;;;;6.80;1.83;;;;;;;;;;5014545;28;20022;-68
2023/03/12 11:01:28;;;;;;;9.10;2.17;;;;;;;;;;5014248;28;20032;-68
2023/03/12 11:04:31;;;;;;;11.63;1.70;;;;;;;;;;5014011;28;20026;-68
2023/03/12 11:07:11;;;;;;;3.80;1.40;;;;;;;;;;4992375;28;20065;-68
2023/03/12 11:09:38;;;;;;;6.40;1.90;;;;;;;;;;4992244;28;20053;-68
2023/03/12 11:12:25;;;;;;;8.20;1.60;;;;;;;;;;4992220;28;20399;-68
2023/03/12 11:14:51;;;;;;;3.95;1.50;;;;;;;;;;4991980;28;20039;-67
2023/03/12 11:17:25;;;;;;;10.77;1.80;;;;;;;;;;4991930;28;20089;-67
2023/03/12 11:19:51;;;;;;;6.78;1.70;;;;;;;;;;4991931;28;20030;-67
2023/03/12 11:22:31;;;;;;;4.85;1.70;;;;;;;;;;4991814;28;20113;-67
2023/03/12 11:25:02;;;;;;;;;;;;;;;;;;4992414;28;20034;-67
2023/03/12 11:27:40;;;;;;;11.30;1.55;;;;;;;;;;4975483;28;20004;-67
2023/03/12 11:30:10;;;;;;;6.80;1.42;;;;;;;;;;4991662;28;20608;-67
2023/03/12 11:32:40;;;;;;;4.28;1.30;;;;;;;;;;4991813;28;20057;-68
2023/03/12 11:35:09;;;;;;;;;;;;;;;;;;4991778;28;20047;-67
2023/03/12 11:38:26;;;;;;;4.32;1.45;;;;;;;;;;4991957;28;19914;-67
2023/03/12 11:41:23;;;;;;;9.48;1.40;;;;;;;;;;4933559;29;20043;-68
2023/03/12 11:44:00;;;;;;;9.85;1.67;;;;;;;;;;4953264;29;20035;-70
2023/03/12 11:47:01;;;;;;;5.65;1.42;;;;;;;;;;4953258;29;20727;-69
2023/03/12 11:50:06;;;;;;;8.80;1.40;;;;;;;;;;4936892;29;20460;-68
2023/03/12 11:52:37;;;;;;;4.63;1.20;;;;;;;;;;4896164;29;20582;-68
2023/03/12 11:55:21;;;;;;;3.20;1.17;;;;;;;;;;4896132;29;20045;-68
2023/03/12 11:58:11;;;;;;;8.13;1.30;;;;;;;;;;4895729;29;20041;-68
2023/03/12 12:01:05;;;;;;;9.23;1.40;;;;;;;;;;4895809;29;20048;-68
2023/03/12 12:03:45;;;;;;;4.88;1.20;;;;;;;;;;4894597;29;20104;-68
2023/03/12 12:06:23;;;;;;;6.43;1.33;;;;;;;;;;4895706;29;20035;-68
2023/03/12 12:09:00;;;;;;;10.43;1.65;;;;;;;;;;4895518;29;20478;-67
2023/03/12 12:11:47;;;;;;;6.32;1.52;;;;;;;;;;4871873;29;20430;-67
2023/03/12 12:14:19;;;;;;;4.30;1.83;;;;;;;;;;4879245;29;20098;-68
2023/03/12 12:17:05;;;;;;;6.30;1.50;;;;;;;;;;4944560;29;20105;-67
2023/03/12 12:20:15;;;;;;;7.80;3.00;;;;;;;;;;4932974;29;20583;-67
2023/03/12 12:23:06;;;;;;;5.05;1.00;;;;;;;;;;4885653;29;20563;-70
2023/03/12 12:25:48;;;;;;;;;;;;;;;;;;4895081;29;20200;-67
2023/03/12 12:28:37;;;;;;;3.33;1.00;;;;;;;;;;4895208;29;19923;-67
2023/03/12 12:31:37;;;;;;;2.08;0.98;;;;;;;;;;4912629;29;20052;-67
2023/03/12 12:34:06;;;;;;;3.60;1.10;;;;;;;;;;4912174;29;20056;-68
2023/03/12 12:36:34;;;;;;;10.10;1.75;;;;;;;;;;4913131;29;20032;-68
2023/03/12 12:39:08;;;;;;;2.00;1.02;;;;;;;;;;4911864;29;20447;-70
2023/03/12 12:41:42;;;;;;;5.05;1.10;;;;;;;;;;4912228;29;20028;-68
2023/03/12 12:44:15;;;;;;;7.25;1.20;;;;;;;;;;4912360;29;20634;-70
2023/03/12 12:46:50;;;;;;;4.35;1.10;;;;;;;;;;4912186;29;20044;-69
2023/03/12 12:49:24;;;;;;;2.72;0.90;;;;;;;;;;4912076;29;20025;-70
2023/03/12 12:51:56;;;;;;;3.83;1.13;;;;;;;;;;4912010;29;20033;-69
2023/03/12 12:54:48;;;;;;;3.53;1.02;;;;;;;;;;4912985;29;20055;-70
2023/03/12 12:57:27;;;;;;;8.35;1.23;;;;;;;;;;4914270;29;20056;-69
2023/03/12 13:00:11;;;;;;;3.50;0.85;;;;;;;;;;4976156;28;20030;-70
2023/03/12 13:02:39;;;;;;;6.80;1.30;;;;;;;;;;4992807;28;20380;-69
2023/03/12 13:05:42;;;;;;;12.90;1.80;;;;;;;;;;4992982;28;20037;-69
2023/03/12 13:08:43;;;;;;;3.90;1.20;;;;;;;;;;4993049;28;20038;-70
2023/03/12 13:11:14;;;;;;;8.05;1.45;;;;;;;;;;4992855;28;20030;-67
2023/03/12 13:13:44;;;;;;;3.97;1.42;;;;;;;;;;4992888;28;20490;-67
2023/03/12 13:16:28;;;;;;;5.13;1.40;;;;;;;;;;4996140;28;20092;-68
2023/03/12 13:18:59;;;;;;;4.57;1.17;;;;;;;;;;4995080;28;20380;-68
2023/03/12 13:21:53;;;;;;;9.30;2.53;;;;;;;;;;4996343;28;20022;-68
2023/03/12 13:24:23;;;;;;;4.38;0.90;;;;;;;;;;4995978;28;20042;-68
2023/03/12 13:26:51;;;;;;;;;;;;;;;;;;4996825;28;20030;-68
2023/03/12 13:29:30;;;;;;;3.92;1.30;;;;;;;;;;4995905;28;19918;-68
2023/03/12 13:31:55;;;;;;;5.70;1.10;;;;;;;;;;5004125;28;20077;-69
2023/03/12 13:34:22;;;;;;;3.42;1.05;;;;;;;;;;5016022;28;20061;-68
2023/03/12 13:36:55;;;;;;;7.57;1.23;;;;;;;;;;5015920;28;20038;-68
2023/03/12 13:39:32;;;;;;;6.40;1.40;;;;;;;;;;5015798;28;20506;-68
2023/03/12 13:41:59;;;;;;;5.53;0.93;;;;;;;;;;5015858;28;20034;-68
2023/03/12 13:44:32;;;;;;;5.22;1.00;;;;;;;;;;5015550;28;20030;-68
2023/03/12 13:47:22;;;;;;;3.58;1.02;;;;;;;;;;5015610;28;20072;-68
2023/03/12 13:49:58;;;;;;;4.60;1.13;;;;;;;;;;5015420;28;20538;-68
2023/03/12 13:52:32;;;;;;;5.13;0.80;;;;;;;;;;5015467;28;20033;-68
2023/03/12 13:55:01;;;;;;;2.35;1.05;;;;;;;;;;5015534;28;20537;-68
2023/03/12 13:57:48;;;;;;;4.50;1.00;;;;;;;;;;5015456;28;20053;-68
2023/03/12 14:00:25;;;;;;;8.60;1.58;;;;;;;;;;5015162;28;20118;-68
2023/03/12 14:02:55;;;;;;;5.63;1.35;;;;;;;;;;5015292;28;20026;-68
2023/03/12 14:05:21;;;;;;;3.58;1.25;;;;;;;;;;5015403;28;20018;-68
2023/03/12 14:08:16;;;;;;;4.47;1.33;;;;;;;;;;5015258;28;20034;-68
2023/03/12 14:11:07;;;;;;;1.83;0.98;;;;;;;;;;5015413;28;20371;-69
2023/03/12 14:13:59;;;;;;;3.20;0.88;;;;;;;;;;5013777;28;20030;-68
2023/03/12 14:16:39;;;;;;;3.95;1.23;;;;;;;;;;5015210;28;20037;-68
2023/03/12 14:19:05;;;;;;;2.13;0.95;;;;;;;;;;5015158;28;20058;-68
2023/03/12 14:21:37;;;;;;;4.65;1.23;;;;;;;;;;5014942;28;20026;-67
2023/03/12 14:24:06;;;;;;;4.18;1.42;;;;;;;;;;5015075;28;20383;-69
2023/03/12 14:26:34;;;;;;;2.97;1.13;;;;;;;;;;5014030;28;20034;-68
2023/03/12 14:29:06;;;;;;;6.93;1.52;;;;;;;;;;5013007;28;21171;-69
2023/03/12 14:31:34;;;;;;;3.38;1.10;;;;;;;;;;5014656;28;20036;-69
2023/03/12 14:34:08;;;;;;;3.95;1.00;;;;;;;;;;5010557;28;20092;-68
2023/03/12 14:36:54;;;;;;;5.82;1.08;;;;;;;;;;4991964;28;20109;-68
2023/03/12 14:39:38;;;;;;;3.78;1.30;;;;;;;;;;4991226;28;20124;-68
2023/03/12 14:42:06;;;;;;;3.30;1.30;;;;;;;;;;4994153;28;20030;-68
2023/03/12 14:44:37;;;;;;;1.77;1.00;;;;;;;;;;4995165;28;20379;-68
2023/03/12 14:47:10;;;;;;;2.08;1.10;;;;;;;;;;4991820;28;20026;-68
2023/03/12 14:49:42;;;;;;;3.80;1.30;;;;;;;;;;4993553;28;20022;-68
2023/03/12 14:52:13;;;;;;;3.17;1.20;;;;;;;;;;4989339;28;20033;-68
2023/03/12 14:54:39;;;;;;;6.13;1.60;;;;;;;;;;4985644;28;20026;-68
2023/03/12 14:57:17;;;;;;;7.13;2.00;;;;;;;;;;4983734;28;20034;-68
2023/03/12 14:59:51;;;;;;;3.58;1.35;;;;;;;;;;4985586;28;20030;-68
2023/03/12 15:02:19;;;;;;;5.47;2.10;;;;;;;;;;4980260;28;20543;-68
2023/03/12 15:04:46;;;;;;;4.43;1.63;;;;;;;;;;4984792;28;20464;-68